Time;durP1;ratioP1;P1;durP2;ratioP2;P2;SDS_P1;SDS_P2;PMS_P1;PMS_P2;Temp;Humidity;BMP_temperature;BMP_pressure;BME280_temperature;BME280_humidity;BME280_pressure;Samples;Min_cycle;Max_cycle;Signal;HPM_P1;HPM_P2
2022/08/31 00:04:40;;;;;;;14.48;8.40;;;20.70;79.10;;;;;;5078123;28;20059;-83
2022/08/31 00:07:07;;;;;;;13.93;8.25;;;20.60;79.50;;;;;;5079952;28;20027;-83
2022/08/31 00:09:33;;;;;;;19.00;8.15;;;20.60;79.70;;;;;;5074448;28;20021;-82
2022/08/31 00:11:59;;;;;;;11.90;8.35;;;20.50;79.70;;;;;;5074151;28;20474;-82
2022/08/31 00:14:25;;;;;;;11.65;7.10;;;20.50;79.90;;;;;;5074151;28;20032;-83
2022/08/31 00:16:51;;;;;;;12.60;8.05;;;20.50;79.90;;;;;;5077670;28;20408;-83
2022/08/31 00:19:17;;;;;;;11.68;6.97;;;20.50;80.00;;;;;;5074570;28;20473;-82
2022/08/31 00:21:43;;;;;;;19.77;8.88;;;20.50;80.00;;;;;;5078422;28;20103;-82
2022/08/31 00:24:10;;;;;;;14.18;8.30;;;;;;;;;;5093235;28;20055;-84
2022/08/31 00:26:36;;;;;;;16.50;8.90;;;20.40;80.20;;;;;;5093611;28;20039;-84
2022/08/31 00:29:03;;;;;;;13.00;8.80;;;20.40;80.60;;;;;;5084091;28;20021;-83
2022/08/31 00:31:29;;;;;;;16.00;8.02;;;20.30;80.80;;;;;;5096641;28;20077;-82
2022/08/31 00:33:55;;;;;;;10.38;6.72;;;20.30;80.90;;;;;;5111043;28;20032;-82
2022/08/31 00:36:23;;;;;;;10.10;8.40;;;20.30;81.00;;;;;;5091291;28;20036;-82
2022/08/31 00:38:49;;;;;;;14.00;9.13;;;20.30;81.10;;;;;;5077173;28;20048;-82
2022/08/31 00:41:18;;;;;;;13.07;9.30;;;20.30;81.20;;;;;;5073598;28;20513;-84
2022/08/31 00:43:47;;;;;;;15.02;8.52;;;20.20;81.40;;;;;;5086764;28;20032;-83
2022/08/31 00:46:16;;;;;;;14.75;7.65;;;20.20;81.30;;;;;;5097026;28;20028;-82
2022/08/31 00:49:14;;;;;;;11.32;6.78;;;20.20;81.40;;;;;;5099306;28;20385;-85
2022/08/31 00:51:47;;;;;;;13.20;7.60;;;20.20;81.30;;;;;;5086238;28;20625;-85
2022/08/31 00:54:17;;;;;;;13.60;8.05;;;20.10;82.30;;;;;;5093264;28;20020;-84
2022/08/31 00:56:44;;;;;;;16.83;9.70;;;20.00;81.80;;;;;;5093461;28;20076;-85
2022/08/31 00:59:12;;;;;;;16.67;10.10;;;20.00;82.00;;;;;;5092023;28;20024;-84
2022/08/31 01:01:38;;;;;;;13.55;10.05;;;20.00;82.20;;;;;;5086301;28;20070;-83
2022/08/31 01:04:04;;;;;;;11.93;8.23;;;20.00;82.50;;;;;;5091719;28;20024;-83
2022/08/31 01:06:30;;;;;;;18.13;9.07;;;20.00;82.50;;;;;;5082899;28;20111;-83
2022/08/31 01:08:59;;;;;;;12.38;9.35;;;20.00;82.70;;;;;;5095174;28;20373;-83
2022/08/31 01:11:26;;;;;;;13.13;8.73;;;19.90;83.00;;;;;;5091789;28;20095;-83
2022/08/31 01:13:52;;;;;;;15.80;9.25;;;19.90;83.20;;;;;;5093067;28;20032;-84
2022/08/31 01:16:43;;;;;;;11.52;8.88;;;19.90;83.40;;;;;;5090311;28;20516;-82
2022/08/31 01:19:26;;;;;;;12.43;8.73;;;19.90;83.40;;;;;;5068087;28;20465;-85
2022/08/31 01:22:17;;;;;;;14.70;8.23;;;19.80;83.80;;;;;;5072620;28;20432;-83
2022/08/31 01:24:45;;;;;;;11.57;8.00;;;19.80;84.00;;;;;;5073289;28;20028;-83
2022/08/31 01:27:14;;;;;;;12.85;8.90;;;19.70;84.30;;;;;;5073868;28;20029;-83
2022/08/31 01:29:40;;;;;;;14.35;8.45;;;19.70;84.40;;;;;;5072513;28;20037;-85
2022/08/31 01:32:07;;;;;;;12.77;8.63;;;19.70;84.60;;;;;;5071994;28;20519;-84
2022/08/31 01:34:33;;;;;;;13.73;8.93;;;19.70;84.80;;;;;;5070944;28;20143;-85
2022/08/31 01:37:00;;;;;;;11.40;9.13;;;19.60;85.00;;;;;;5075766;28;20024;-85
2022/08/31 01:39:26;;;;;;;12.55;9.45;;;19.60;85.30;;;;;;5092528;28;20089;-83
2022/08/31 01:41:52;;;;;;;10.85;8.43;;;19.60;85.50;;;;;;5092647;28;20432;-82
2022/08/31 01:44:21;;;;;;;15.02;9.18;;;19.60;85.80;;;;;;5092387;28;20047;-83
2022/08/31 01:46:47;;;;;;;9.52;7.68;;;19.50;86.20;;;;;;5092105;28;20485;-83
2022/08/31 01:49:15;;;;;;;12.20;7.93;;;19.50;86.50;;;;;;5087286;28;20020;-82
2022/08/31 01:51:42;;;;;;;11.57;8.13;;;19.50;86.70;;;;;;5085082;28;20032;-83
2022/08/31 01:54:08;;;;;;;16.05;9.35;;;19.40;87.00;;;;;;5088433;28;20013;-83
2022/08/31 01:56:38;;;;;;;12.85;9.00;;;19.40;87.30;;;;;;5078359;28;20024;-83
2022/08/31 01:59:06;;;;;;;13.27;8.85;;;19.40;87.60;;;;;;5082000;28;20016;-83
2022/08/31 02:01:35;;;;;;;12.63;8.70;;;19.30;87.90;;;;;;5091268;28;20024;-82
2022/08/31 02:04:02;;;;;;;14.13;9.52;;;19.30;88.10;;;;;;5088462;28;20084;-83
2022/08/31 02:06:29;;;;;;;12.05;8.77;;;19.30;88.30;;;;;;5093007;28;20024;-83
2022/08/31 02:08:54;;;;;;;13.30;8.50;;;19.30;88.40;;;;;;5106569;28;20031;-83
2022/08/31 02:11:20;;;;;;;13.18;8.75;;;19.30;88.50;;;;;;5103725;28;20032;-84
2022/08/31 02:13:46;;;;;;;15.10;9.13;;;19.30;88.60;;;;;;5092756;28;20025;-84
2022/08/31 02:16:12;;;;;;;10.52;8.05;;;19.20;88.70;;;;;;5090903;28;20072;-82
2022/08/31 02:18:38;;;;;;;13.35;8.88;;;19.20;88.90;;;;;;5090902;28;20078;-81
2022/08/31 02:21:04;;;;;;;14.90;8.45;;;19.20;89.10;;;;;;5076020;28;20378;-81
2022/08/31 02:23:30;;;;;;;17.75;8.90;;;19.20;89.10;;;;;;5080355;28;20069;-81
2022/08/31 02:25:56;;;;;;;13.27;8.25;;;19.20;89.10;;;;;;5092010;28;20016;-81
2022/08/31 02:28:22;;;;;;;11.82;8.82;;;19.10;89.80;;;;;;5086126;28;20474;-81
2022/08/31 02:30:48;;;;;;;13.63;8.48;;;19.10;89.40;;;;;;5085705;28;20020;-81
2022/08/31 02:33:15;;;;;;;15.57;8.93;;;19.10;89.30;;;;;;5097824;28;20024;-81
2022/08/31 02:35:41;;;;;;;11.52;8.82;;;19.10;89.50;;;;;;5096004;28;20115;-81
2022/08/31 02:38:08;;;;;;;9.30;7.75;;;19.10;89.60;;;;;;5095578;28;20047;-81
2022/08/31 02:40:37;;;;;;;13.95;7.95;;;19.00;89.40;;;;;;5093582;28;20477;-81
2022/08/31 02:43:08;;;;;;;9.75;7.65;;;19.00;89.30;;;;;;5092079;28;20020;-82
2022/08/31 02:45:37;;;;;;;15.35;8.50;;;19.00;89.20;;;;;;5086675;28;20016;-82
2022/08/31 02:48:04;;;;;;;13.25;8.70;;;19.00;89.40;;;;;;5092777;28;20050;-83
2022/08/31 02:50:30;;;;;;;12.48;8.05;;;19.00;89.30;;;;;;5092845;28;20024;-82
2022/08/31 02:52:56;;;;;;;11.88;7.85;;;19.00;89.30;;;;;;5090557;28;20024;-83
2022/08/31 02:55:23;;;;;;;11.75;7.95;;;18.90;89.20;;;;;;5086923;28;20036;-83
2022/08/31 02:57:51;;;;;;;12.85;8.35;;;18.90;89.40;;;;;;5094152;28;20027;-82
2022/08/31 03:00:19;;;;;;;9.95;7.70;;;18.90;89.40;;;;;;5095673;28;20035;-82
2022/08/31 03:02:44;;;;;;;10.43;8.00;;;18.90;89.40;;;;;;5095521;28;20017;-83
2022/08/31 03:05:11;;;;;;;9.77;7.80;;;19.00;89.30;;;;;;5095984;28;20032;-83
2022/08/31 03:07:37;;;;;;;19.00;7.67;;;19.00;89.10;;;;;;5095539;28;20023;-84
2022/08/31 03:10:09;;;;;;;10.63;7.07;;;19.00;89.00;;;;;;5093543;28;20279;-83
2022/08/31 03:12:36;;;;;;;14.25;7.75;;;19.00;88.80;;;;;;5091241;28;20020;-82
2022/08/31 03:15:05;;;;;;;15.63;8.27;;;19.00;89.00;;;;;;5095464;28;20052;-82
2022/08/31 03:17:31;;;;;;;13.93;7.93;;;19.10;88.80;;;;;;5095286;28;20035;-82
2022/08/31 03:20:00;;;;;;;10.07;6.82;;;19.10;88.70;;;;;;5095247;28;20024;-81
2022/08/31 03:22:29;;;;;;;11.82;7.32;;;19.20;88.60;;;;;;5095290;28;20048;-82
2022/08/31 03:24:54;;;;;;;11.88;7.38;;;19.20;88.30;;;;;;5081265;28;20025;-81
2022/08/31 03:27:21;;;;;;;10.85;7.32;;;19.30;88.00;;;;;;5094114;28;20043;-82
2022/08/31 03:29:46;;;;;;;10.43;7.40;;;19.30;87.80;;;;;;5097132;28;20508;-81
2022/08/31 03:32:12;;;;;;;10.45;6.90;;;19.30;87.30;;;;;;5095196;28;20024;-83
2022/08/31 03:34:38;;;;;;;14.73;8.00;;;19.30;87.40;;;;;;5094919;28;20028;-82
2022/08/31 03:37:04;;;;;;;9.30;7.70;;;19.30;87.70;;;;;;5080656;28;20021;-81
2022/08/31 03:39:30;;;;;;;10.50;7.55;;;19.30;87.50;;;;;;5095153;28;20031;-83
2022/08/31 03:41:56;;;;;;;7.63;6.70;;;19.30;87.50;;;;;;5094473;28;20020;-82
2022/08/31 03:44:22;;;;;;;9.50;6.50;;;19.30;87.30;;;;;;5107856;28;20024;-82
2022/08/31 03:46:54;;;;;;;16.20;6.72;;;19.40;87.10;;;;;;5101402;28;20020;-83
2022/08/31 03:49:21;;;;;;;8.50;6.55;;;19.40;86.80;;;;;;5093540;28;20117;-83
2022/08/31 03:51:47;;;;;;;11.13;7.60;;;19.30;86.80;;;;;;5094798;28;20028;-81
2022/08/31 03:54:13;;;;;;;10.55;6.65;;;19.30;86.90;;;;;;5092965;28;20024;-84
2022/08/31 03:56:40;;;;;;;8.85;6.75;;;19.40;86.80;;;;;;5094784;28;20024;-82
2022/08/31 03:59:06;;;;;;;9.27;6.45;;;19.50;86.50;;;;;;5093339;28;20508;-81
2022/08/31 04:01:35;;;;;;;8.95;7.03;;;19.60;86.10;;;;;;5093769;28;20037;-82
2022/08/31 04:04:01;;;;;;;8.27;7.15;;;19.70;85.60;;;;;;5094759;28;20036;-83
2022/08/31 04:06:27;;;;;;;10.23;6.75;;;19.80;84.80;;;;;;5093127;28;20020;-83
2022/08/31 04:08:54;;;;;;;13.57;7.35;;;19.70;84.90;;;;;;5093973;28;20426;-84
2022/08/31 04:11:21;;;;;;;12.02;7.40;;;19.70;85.70;;;;;;5094642;28;20111;-83
2022/08/31 04:13:47;;;;;;;9.43;6.53;;;19.70;85.40;;;;;;5096893;28;20032;-84
2022/08/31 04:16:16;;;;;;;12.95;6.90;;;19.90;84.80;;;;;;5093756;28;20040;-84
2022/08/31 04:18:44;;;;;;;9.48;6.95;;;19.90;84.70;;;;;;5094675;28;20078;-85
2022/08/31 04:21:16;;;;;;;13.02;8.02;;;20.00;84.50;;;;;;5092081;28;20092;-84
2022/08/31 04:23:42;;;;;;;10.77;7.43;;;20.20;84.00;;;;;;5092438;28;20437;-84
2022/08/31 04:26:16;;;;;;;8.68;6.68;;;20.20;83.70;;;;;;5088337;28;20052;-84
2022/08/31 04:28:41;;;;;;;8.25;6.75;;;20.20;83.30;;;;;;5087167;28;20013;-84
2022/08/31 04:31:07;;;;;;;11.98;7.10;;;20.50;83.40;;;;;;5075098;28;20078;-84
2022/08/31 04:33:36;;;;;;;7.72;5.47;;;20.90;82.00;;;;;;5081383;28;20027;-84
2022/08/31 04:36:07;;;;;;;8.88;5.88;;;21.50;79.00;;;;;;5082366;28;20028;-86
2022/08/31 04:38:34;;;;;;;8.73;5.72;;;21.90;77.20;;;;;;5078447;28;20052;-85
2022/08/31 04:41:08;;;;;;;6.25;5.63;;;22.10;75.30;;;;;;5092821;28;20039;-86
2022/08/31 04:43:35;;;;;;;7.55;5.35;;;22.20;74.90;;;;;;5095265;28;20073;-84
2022/08/31 04:46:03;;;;;;;7.38;6.03;;;22.10;74.70;;;;;;5095741;28;20508;-84
2022/08/31 04:48:29;;;;;;;10.23;6.22;;;22.40;74.70;;;;;;5094036;28;20027;-84
2022/08/31 04:51:03;;;;;;;9.25;6.68;;;22.70;73.20;;;;;;5095551;28;20117;-85
2022/08/31 04:53:29;;;;;;;8.38;5.35;;;22.90;72.20;;;;;;5102578;28;20028;-83
2022/08/31 04:55:55;;;;;;;9.20;5.50;;;23.20;71.60;;;;;;5105344;28;20565;-83
2022/08/31 04:58:22;;;;;;;9.75;6.38;;;23.40;70.60;;;;;;5100349;28;20088;-84
2022/08/31 05:00:48;;;;;;;;;;;23.30;69.90;;;;;;5110651;28;20023;-84
2022/08/31 05:03:18;;;;;;;9.07;5.90;;;22.80;71.40;;;;;;5102791;28;19958;-85
2022/08/31 05:05:51;;;;;;;7.80;5.63;;;22.40;73.10;;;;;;5103256;28;20272;-84
2022/08/31 05:08:17;;;;;;;6.60;5.68;;;22.80;72.50;;;;;;5091054;28;20056;-85
2022/08/31 05:10:47;;;;;;;7.50;5.28;;;23.90;69.90;;;;;;5100197;28;20024;-85
2022/08/31 05:13:13;;;;;;;12.25;6.47;;;24.60;66.80;;;;;;5096240;28;20031;-84
2022/08/31 05:15:42;;;;;;;6.07;5.45;;;24.70;65.70;;;;;;5097089;28;20043;-84
2022/08/31 05:18:09;;;;;;;12.40;5.88;;;24.30;65.70;;;;;;5085823;28;20028;-85
2022/08/31 05:20:36;;;;;;;6.68;5.35;;;24.00;67.00;;;;;;5101496;28;20089;-85
2022/08/31 05:23:02;;;;;;;10.35;5.65;;;23.50;67.60;;;;;;5087893;28;20032;-84
2022/08/31 05:25:27;;;;;;;12.00;6.05;;;23.30;68.70;;;;;;5075567;28;20028;-84
2022/08/31 05:27:53;;;;;;;14.07;5.50;;;23.10;69.30;;;;;;5073877;28;20084;-85
2022/08/31 05:30:20;;;;;;;14.27;5.50;;;22.80;70.00;;;;;;5075618;28;20055;-85
2022/08/31 05:32:46;;;;;;;8.17;6.23;;;22.50;71.20;;;;;;5076455;28;20024;-85
2022/08/31 05:35:12;;;;;;;13.73;8.85;;;22.40;71.80;;;;;;5091192;28;20035;-86
2022/08/31 05:37:38;;;;;;;10.48;6.15;;;22.30;72.40;;;;;;5085128;28;20019;-85
2022/08/31 05:40:05;;;;;;;18.75;6.53;;;22.20;72.80;;;;;;5093905;28;20020;-85
2022/08/31 05:42:31;;;;;;;10.27;6.90;;;22.10;73.30;;;;;;5093192;28;20088;-85
2022/08/31 05:44:57;;;;;;;9.73;5.78;;;22.00;73.20;;;;;;5085942;28;20033;-85
2022/08/31 05:47:23;;;;;;;9.30;5.85;;;21.90;73.70;;;;;;5092524;28;20020;-85
2022/08/31 05:49:49;;;;;;;8.57;5.70;;;21.70;74.30;;;;;;5093635;28;20100;-84
2022/08/31 05:52:15;;;;;;;7.20;5.63;;;;;;;;;;5092579;28;20020;-84
2022/08/31 05:54:41;;;;;;;8.02;5.68;;;21.30;75.40;;;;;;5092962;28;20112;-84
2022/08/31 05:57:07;;;;;;;8.85;6.28;;;21.20;76.20;;;;;;5091917;28;20052;-84
2022/08/31 05:59:34;;;;;;;7.82;6.40;;;21.20;76.60;;;;;;5073342;28;20013;-83
2022/08/31 06:02:01;;;;;;;11.75;6.53;;;20.80;77.40;;;;;;5085472;28;20066;-87
2022/08/31 06:04:27;;;;;;;11.70;6.43;;;20.60;78.40;;;;;;5096876;28;20039;-85
2022/08/31 06:06:53;;;;;;;12.88;7.80;;;20.40;78.80;;;;;;5087131;28;20059;-85
2022/08/31 06:09:20;;;;;;;13.43;7.18;;;20.20;79.30;;;;;;5085659;28;20040;-84
2022/08/31 06:11:46;;;;;;;12.07;6.93;;;20.10;79.90;;;;;;5082939;28;20085;-85
2022/08/31 06:14:12;;;;;;;13.63;6.35;;;20.10;80.00;;;;;;5076032;28;20017;-83
2022/08/31 06:16:41;;;;;;;12.15;7.47;;;20.10;80.00;;;;;;5083565;28;20040;-84
2022/08/31 06:19:07;;;;;;;11.15;5.45;;;20.10;79.80;;;;;;5085182;28;20070;-88
2022/08/31 06:21:37;;;;;;;12.38;5.85;;;20.00;79.10;;;;;;5087335;28;20024;-88
2022/08/31 06:24:04;;;;;;;10.50;6.03;;;19.80;80.10;;;;;;5089478;28;20530;-88
2022/08/31 06:26:33;;;;;;;12.15;6.30;;;19.80;80.40;;;;;;5078903;28;20037;-84
2022/08/31 06:29:02;;;;;;;6.88;5.40;;;19.90;80.70;;;;;;5078992;28;20034;-84
2022/08/31 06:31:37;;;;;;;9.55;5.43;;;20.00;79.20;;;;;;5090147;28;20016;-84
2022/08/31 06:34:05;;;;;;;11.55;6.00;;;20.10;77.70;;;;;;5079752;28;20040;-87
2022/08/31 06:36:32;;;;;;;4.60;3.92;;;20.40;77.80;;;;;;5093180;28;20412;-86
2022/08/31 06:38:59;;;;;;;8.73;5.05;;;21.60;74.60;;;;;;5087448;28;20032;-86
2022/08/31 06:41:37;;;;;;;;;;;22.50;71.50;;;;;;5091738;28;20032;-82
2022/08/31 06:44:06;;;;;;;13.40;4.43;;;23.40;71.70;;;;;;5089362;28;19904;-83
2022/08/31 06:46:34;;;;;;;6.85;3.95;;;24.10;65.70;;;;;;5090785;28;20136;-89
2022/08/31 06:49:00;;;;;;;7.15;4.20;;;23.90;64.60;;;;;;5084918;28;20036;-88
2022/08/31 06:51:26;;;;;;;10.40;3.80;;;23.70;65.00;;;;;;5091341;28;20112;-86
2022/08/31 06:53:53;;;;;;;8.88;3.50;;;23.60;64.60;;;;;;5097166;28;20016;-88
2022/08/31 06:56:21;;;;;;;;;;;23.60;64.40;;;;;;5108730;28;20008;-87
2022/08/31 06:58:50;;;;;;;13.00;4.15;;;23.50;65.40;;;;;;5097223;28;19904;-93
2022/08/31 07:01:22;;;;;;;10.30;4.65;;;23.20;65.70;;;;;;5093904;28;20066;-91
2022/08/31 07:03:49;;;;;;;8.10;4.75;;;23.20;65.80;;;;;;5102676;28;20027;-91
2022/08/31 07:06:19;;;;;;;14.10;4.68;;;22.80;66.60;;;;;;5090405;28;20031;-93
2022/08/31 07:08:49;;;;;;;8.23;3.95;;;22.60;67.60;;;;;;5060835;28;20037;-93
2022/08/31 07:11:26;;;;;;;13.68;4.13;;;22.30;67.70;;;;;;5060828;28;20033;-91
2022/08/31 07:13:54;;;;;;;12.85;3.95;;;22.50;68.20;;;;;;5059204;28;20037;-91
2022/08/31 07:16:21;;;;;;;11.95;4.80;;;23.00;67.00;;;;;;5062574;28;20310;-86
2022/08/31 07:18:51;;;;;;;;;;;23.40;65.40;;;;;;5065988;28;20029;-87
2022/08/31 07:21:28;;;;;;;6.78;3.55;;;23.40;65.50;;;;;;5049843;28;19916;-88
2022/08/31 07:23:57;;;;;;;10.48;4.50;;;23.60;64.90;;;;;;5050663;28;20449;-87
2022/08/31 07:26:30;;;;;;;10.70;4.70;;;23.70;63.60;;;;;;5052640;28;20063;-85
2022/08/31 07:28:57;;;;;;;7.60;4.40;;;23.80;63.80;;;;;;5053961;28;20532;-87
2022/08/31 07:31:36;;;;;;;5.70;3.45;;;24.20;62.60;;;;;;5052739;28;20029;-87
2022/08/31 07:34:05;;;;;;;9.02;3.40;;;24.20;61.60;;;;;;5050561;28;20100;-85
2022/08/31 07:36:31;;;;;;;6.15;3.88;;;24.00;62.20;;;;;;5050448;28;20391;-88
2022/08/31 07:44:24;;;;;;;7.60;4.47;;;22.50;66.00;;;;;;5098129;28;20016;-87
2022/08/31 07:46:54;;;;;;;12.75;4.68;;;22.20;67.20;;;;;;5093153;28;20178;-88
2022/08/31 07:49:20;;;;;;;8.32;5.85;;;22.10;67.70;;;;;;5093757;28;20023;-87
2022/08/31 07:51:49;;;;;;;11.23;5.50;;;21.90;68.30;;;;;;5080660;28;20024;-85
2022/08/31 07:54:20;;;;;;;6.93;4.63;;;21.70;69.10;;;;;;5085475;28;20024;-82
2022/08/31 07:56:50;;;;;;;10.57;4.07;;;21.50;70.10;;;;;;5086480;28;20368;-82
2022/08/31 07:59:20;;;;;;;5.95;3.58;;;21.30;71.30;;;;;;5076720;28;20474;-84
2022/08/31 08:01:47;;;;;;;8.20;3.72;;;21.30;71.40;;;;;;5078054;28;20025;-86
2022/08/31 08:04:20;;;;;;;6.80;3.47;;;21.30;71.40;;;;;;5089856;28;20021;-83
2022/08/31 08:06:47;;;;;;;4.03;2.80;;;21.20;71.50;;;;;;5089738;28;20028;-85
2022/08/31 08:09:14;;;;;;;6.93;2.97;;;21.00;72.40;;;;;;5101246;28;20028;-82
2022/08/31 08:11:45;;;;;;;6.67;4.23;;;20.70;73.30;;;;;;5078158;28;20028;-84
2022/08/31 08:14:11;;;;;;;8.77;3.67;;;20.50;74.60;;;;;;5087774;28;20273;-83
2022/08/31 08:16:37;;;;;;;6.75;3.85;;;20.60;74.60;;;;;;5091202;28;20036;-85
2022/08/31 08:19:04;;;;;;;6.50;3.47;;;20.60;74.40;;;;;;5074390;28;20082;-84
2022/08/31 08:21:30;;;;;;;9.20;3.60;;;20.80;74.20;;;;;;5085220;28;20019;-85
2022/08/31 08:23:56;;;;;;;5.80;3.20;;;21.00;73.50;;;;;;5093311;28;20024;-82
2022/08/31 08:26:22;;;;;;;7.18;3.20;;;21.30;72.50;;;;;;5084907;28;20051;-83
2022/08/31 08:28:48;;;;;;;6.00;3.28;;;21.60;72.00;;;;;;5087531;28;20020;-83
2022/08/31 08:31:17;;;;;;;7.13;3.03;;;21.80;71.20;;;;;;5094262;28;20024;-84
2022/08/31 08:33:44;;;;;;;5.38;2.67;;;22.20;70.10;;;;;;5081813;28;20042;-82
2022/08/31 08:36:11;;;;;;;6.70;3.30;;;22.60;68.70;;;;;;5075407;28;20040;-85
2022/08/31 08:38:38;;;;;;;6.78;2.60;;;22.80;67.70;;;;;;5092195;28;20358;-84
2022/08/31 08:41:11;;;;;;;9.07;2.75;;;22.70;67.10;;;;;;5093108;28;20466;-85
2022/08/31 08:43:41;;;;;;;3.20;2.90;;;22.40;67.70;;;;;;5090188;28;20031;-83
2022/08/31 08:46:12;;;;;;;5.20;2.10;;;22.30;68.20;;;;;;5089240;28;20502;-86
2022/08/31 08:48:40;;;;;;;2.88;2.17;;;22.20;68.20;;;;;;5090878;28;20020;-83
2022/08/31 08:51:16;;;;;;;5.07;2.55;;;21.90;68.90;;;;;;5074627;28;20024;-85
2022/08/31 08:53:44;;;;;;;4.90;2.80;;;21.80;69.90;;;;;;5077743;28;20028;-85
2022/08/31 08:56:11;;;;;;;8.10;3.38;;;21.80;70.00;;;;;;5087583;28;20044;-83
2022/08/31 08:58:44;;;;;;;4.97;3.42;;;21.90;70.00;;;;;;5093152;28;20020;-85
2022/08/31 09:01:18;;;;;;;4.28;3.05;;;22.00;69.40;;;;;;5103760;28;20039;-83
2022/08/31 09:03:53;;;;;;;4.70;2.65;;;22.10;69.10;;;;;;5098128;28;20017;-85
2022/08/31 09:06:30;;;;;;;6.22;4.00;;;22.40;68.70;;;;;;5087354;28;20038;-83
2022/08/31 09:09:20;;;;;;;6.93;2.30;;;23.10;67.70;;;;;;5085571;28;20473;-87
2022/08/31 09:11:53;;;;;;;5.78;2.60;;;24.40;64.80;;;;;;5093969;28;20035;-83
2022/08/31 09:14:46;;;;;;;5.50;2.25;;;25.50;60.60;;;;;;5089549;28;20477;-84
2022/08/31 09:17:33;;;;;;;6.10;2.83;;;25.50;59.10;;;;;;5069588;28;20078;-83
2022/08/31 09:20:10;;;;;;;5.05;2.92;;;24.80;60.00;;;;;;5074977;28;20088;-86
2022/08/31 09:22:49;;;;;;;5.32;3.10;;;24.20;61.60;;;;;;5074305;28;20020;-86
2022/08/31 09:25:28;;;;;;;6.93;3.15;;;24.00;62.10;;;;;;5082731;28;20044;-83
2022/08/31 09:27:59;;;;;;;6.60;3.33;;;23.70;63.00;;;;;;5092770;28;20037;-84
2022/08/31 09:30:43;;;;;;;6.38;3.03;;;23.40;64.00;;;;;;5078321;28;20020;-83
2022/08/31 09:33:23;;;;;;;6.25;2.85;;;23.10;64.90;;;;;;5088302;28;20021;-84
2022/08/31 09:35:55;;;;;;;5.97;2.53;;;23.00;65.30;;;;;;5074942;28;20024;-85
2022/08/31 09:38:39;;;;;;;3.55;2.50;;;22.90;65.00;;;;;;5088785;28;20020;-84
2022/08/31 09:41:29;;;;;;;9.75;2.65;;;22.60;66.10;;;;;;5094500;28;20024;-83
2022/08/31 09:44:19;;;;;;;5.20;2.70;;;22.30;67.10;;;;;;5095138;28;20101;-83
2022/08/31 09:46:55;;;;;;;6.20;2.40;;;22.60;67.00;;;;;;5082691;28;20489;-81
2022/08/31 09:49:30;;;;;;;6.00;2.03;;;22.90;66.40;;;;;;5078070;28;20613;-81
2022/08/31 09:55:12;;;;;;;8.70;2.72;;;23.40;64.70;;;;;;5093074;28;20032;-83
2022/08/31 09:55:17;;;;;;;3.95;1.88;;;23.80;64.10;;;;;;5074196;28;20385;-84
2022/08/31 09:57:53;;;;;;;3.70;1.88;;;24.30;62.70;;;;;;5085738;28;20024;-84
2022/08/31 10:00:39;;;;;;;3.50;2.13;;;24.50;62.20;;;;;;5073953;28;20312;-84
2022/08/31 10:03:18;;;;;;;5.33;1.93;;;24.50;61.80;;;;;;5072787;28;20158;-84
2022/08/31 10:05:44;;;;;;;6.28;2.55;;;24.60;62.00;;;;;;5072098;28;20021;-84
2022/08/31 10:08:21;;;;;;;3.72;2.30;;;26.40;61.00;;;;;;5072182;28;20406;-83
2022/08/31 10:10:49;;;;;;;6.50;2.25;;;;;;;;;;5080448;28;20090;-89
2022/08/31 10:13:20;;;;;;;5.30;2.25;;;;;;;;;;5087496;28;20031;-84
2022/08/31 10:15:52;;;;;;;4.35;2.00;;;;;;;;;;5075134;28;20044;-84
2022/08/31 10:18:38;;;;;;;5.30;2.67;;;;;;;;;;5072285;28;20072;-85
2022/08/31 10:21:14;;;;;;;3.95;2.15;;;27.50;58.10;;;;;;5073492;28;20028;-83
2022/08/31 10:23:53;;;;;;;5.30;2.05;;;28.00;54.80;;;;;;5072050;28;20095;-84
2022/08/31 10:26:45;;;;;;;5.57;1.75;;;28.30;52.60;;;;;;5078686;28;20023;-84
2022/08/31 10:29:31;;;;;;;4.15;1.63;;;27.60;53.00;;;;;;5079959;28;20031;-83
2022/08/31 10:32:01;;;;;;;12.07;2.05;;;26.80;53.70;;;;;;5072441;28;20029;-83
2022/08/31 10:37:42;;;;;;;3.67;1.48;;;25.40;56.90;;;;;;5078791;28;20043;-82
2022/08/31 10:40:17;;;;;;;8.68;2.28;;;24.70;58.00;;;;;;5092669;28;20016;-85
2022/08/31 10:42:58;;;;;;;2.33;1.40;;;24.20;60.10;;;;;;5091345;28;20020;-82
2022/08/31 10:45:27;;;;;;;6.38;3.50;;;23.50;61.60;;;;;;5079741;28;20335;-83
2022/08/31 10:47:54;;;;;;;2.30;1.50;;;23.00;63.50;;;;;;5072478;28;20021;-84
2022/08/31 10:50:55;;;;;;;1.83;1.33;;;22.70;64.40;;;;;;5074174;28;20021;-85
2022/08/31 10:53:32;;;;;;;8.90;2.70;;;22.30;64.90;;;;;;5070159;28;20032;-83
2022/08/31 10:56:14;;;;;;;7.60;3.13;;;;;;;;;;5076398;28;20032;-82
2022/08/31 10:59:01;;;;;;;3.75;2.03;;;21.40;72.00;;;;;;5073871;28;20029;-84
2022/08/31 11:02:26;;;;;;;4.95;3.00;;;19.90;81.60;;;;;;5073015;28;20351;-83
2022/08/31 11:05:17;;;;;;;3.28;2.15;;;19.30;83.30;;;;;;5033297;28;20080;-82
2022/08/31 11:08:13;;;;;;;3.63;2.42;;;19.00;86.10;;;;;;5045527;28;20100;-80
2022/08/31 11:10:45;;;;;;;4.50;2.00;;;18.90;88.20;;;;;;5071883;28;20029;-81
2022/08/31 11:13:19;;;;;;;4.03;2.17;;;;;;;;;;5071884;28;20397;-82
2022/08/31 11:15:57;;;;;;;5.68;2.60;;;;;;;;;;5071071;28;20150;-82
2022/08/31 11:18:38;;;;;;;6.68;2.65;;;;;;;;;;5075134;28;20028;-82
2022/08/31 11:21:25;;;;;;;2.75;2.15;;;;;;;;;;5087975;28;20029;-84
2022/08/31 11:23:52;;;;;;;3.83;2.40;;;;;;;;;;5075858;28;20520;-85
2022/08/31 11:26:23;;;;;;;4.32;2.97;;;;;;;;;;5078793;28;20073;-84
2022/08/31 11:28:50;;;;;;;4.78;2.42;;;;;;;;;;5090887;28;20073;-85
2022/08/31 11:31:26;;;;;;;2.92;2.00;;;;;;;;;;5078646;28;20060;-82
2022/08/31 11:33:59;;;;;;;3.80;2.40;;;18.80;88.80;;;;;;5096880;28;20020;-83
2022/08/31 11:36:40;;;;;;;5.88;1.52;;;;;;;;;;5080355;28;20032;-82
2022/08/31 11:39:06;;;;;;;3.03;2.15;;;;;;;;;;5083032;28;20032;-83
2022/08/31 11:41:46;;;;;;;6.43;2.90;;;;;;;;;;5095638;28;20025;-83
2022/08/31 11:44:30;;;;;;;3.55;1.70;;;;;;;;;;5093769;28;20024;-82
2022/08/31 11:47:11;;;;;;;4.72;3.20;;;;;;;;;;5098358;28;20071;-82
2022/08/31 11:49:45;;;;;;;4.90;2.10;;;;;;;;;;5095245;28;20024;-82
2022/08/31 11:52:28;;;;;;;3.92;1.88;;;;;;;;;;5085547;28;20029;-82
2022/08/31 11:54:56;;;;;;;4.68;1.85;;;;;;;;;;5096166;28;20119;-83
2022/08/31 11:57:30;;;;;;;3.50;2.10;;;;;;;;;;5095938;28;20448;-83
2022/08/31 11:59:57;;;;;;;6.00;2.00;;;;;;;;;;5095849;28;20035;-81
2022/08/31 12:02:24;;;;;;;2.33;1.57;;;;;;;;;;5097634;28;20020;-78
2022/08/31 12:04:51;;;;;;;2.80;2.00;;;;;;;;;;5096993;28;20023;-81
2022/08/31 12:07:25;;;;;;;4.15;1.58;;;;;;;;;;5094955;28;20030;-81
2022/08/31 12:09:54;;;;;;;2.88;1.35;;;;;;;;;;5094590;28;20024;-80
2022/08/31 12:12:32;;;;;;;3.58;1.52;;;;;;;;;;5094710;28;20036;-81
2022/08/31 12:15:08;;;;;;;3.72;1.52;;;;;;;;;;5093532;28;20040;-81
2022/08/31 12:17:37;;;;;;;4.78;1.42;;;;;;;;;;5094405;28;20024;-80
2022/08/31 12:20:22;;;;;;;4.07;1.80;;;;;;;;;;5094329;28;20024;-81
2022/08/31 12:26:16;;;;;;;3.47;1.40;;;;;;;;;;5094477;28;20039;-81
2022/08/31 12:28:52;;;;;;;5.40;1.75;;;;;;;;;;5088831;28;20026;-80
2022/08/31 12:31:19;;;;;;;4.30;1.58;;;;;;;;;;5094418;28;20020;-81
2022/08/31 12:33:54;;;;;;;2.25;1.23;;;;;;;;;;5095323;28;20354;-82
2022/08/31 12:36:24;;;;;;;1.70;0.90;;;;;;;;;;5081966;28;20511;-81
2022/08/31 12:39:09;;;;;;;4.05;1.08;;;;;;;;;;5090770;28;20024;-83
2022/08/31 12:41:50;;;;;;;3.17;1.58;;;;;;;;;;5092083;28;20024;-83
2022/08/31 12:44:20;;;;;;;3.25;1.42;;;;;;;;;;5088903;28;20038;-82
2022/08/31 12:46:59;;;;;;;8.20;2.05;;;;;;;;;;5084755;28;20040;-80
2022/08/31 12:49:31;;;;;;;4.43;1.05;;;;;;;;;;5074939;28;20436;-81
2022/08/31 12:52:06;;;;;;;2.25;0.95;;;;;;;;;;5074139;28;20027;-82
2022/08/31 12:54:49;;;;;;;3.13;1.25;;;;;;;;;;5075225;28;20024;-83
2022/08/31 12:57:33;;;;;;;3.20;0.90;;;;;;;;;;5079443;28;20025;-83
2022/08/31 13:00:16;;;;;;;6.82;1.38;;;;;;;;;;5075395;28;20287;-83
2022/08/31 13:02:45;;;;;;;5.47;1.02;;;;;;;;;;5090971;28;20035;-82
2022/08/31 13:05:17;;;;;;;2.55;0.80;;;;;;;;;;5075714;28;20021;-84
2022/08/31 13:07:43;;;;;;;6.57;1.08;;;;;;;;;;5074862;28;20020;-84
2022/08/31 13:10:12;;;;;;;3.97;1.05;;;;;;;;;;5083932;28;20031;-84
2022/08/31 13:12:39;;;;;;;2.35;0.98;;;;;;;;;;5092007;28;20021;-85
2022/08/31 13:15:09;;;;;;;5.63;1.27;;;;;;;;;;5083373;28;20141;-83
2022/08/31 13:17:37;;;;;;;4.93;1.13;;;;;;;;;;5081203;28;20024;-84
2022/08/31 13:20:04;;;;;;;3.38;0.85;;;;;;;;;;5078952;28;20025;-84
2022/08/31 13:22:40;;;;;;;1.23;0.70;;;;;;;;;;5086970;28;20031;-84
2022/08/31 13:25:10;;;;;;;2.53;0.85;;;;;;;;;;5087266;28;20016;-84
2022/08/31 13:27:38;;;;;;;6.35;1.08;;;;;;;;;;5098922;28;20078;-83
2022/08/31 13:30:17;;;;;;;4.75;1.17;;;;;;;;;;5103106;28;20104;-83
2022/08/31 13:32:45;;;;;;;2.90;0.90;;;;;;;;;;5089994;28;20106;-80
2022/08/31 13:35:14;;;;;;;2.10;0.98;;;;;;;;;;5083252;28;20024;-83
2022/08/31 13:37:52;;;;;;;8.07;1.00;;;;;;;;;;5089891;28;20431;-82
2022/08/31 13:40:22;;;;;;;4.55;1.58;;;;;;;;;;5102480;28;20490;-81